sensor_id;sensor_type;location;lat;lon;timestamp;pressure;altitude;pressure_sealevel;temperature;humidity
65329;BME280;51941;52.210;5.158;2023-02-20T00:00:22;102422.03;;;6.72;100.00
65329;BME280;51941;52.210;5.158;2023-02-20T00:02:49;102417.22;;;6.75;100.00
65329;BME280;51941;52.210;5.158;2023-02-20T00:05:18;102427.94;;;6.74;100.00
65329;BME280;51941;52.210;5.158;2023-02-20T00:07:45;102442.56;;;6.76;100.00
65329;BME280;51941;52.210;5.158;2023-02-20T00:10:12;102448.50;;;6.78;100.00
65329;BME280;51941;52.210;5.158;2023-02-20T00:12:39;102431.41;;;6.82;100.00
65329;BME280;51941;52.210;5.158;2023-02-20T00:15:07;102422.47;;;6.83;100.00
65329;BME280;51941;52.210;5.158;2023-02-20T00:17:34;102419.03;;;6.83;100.00
65329;BME280;51941;52.210;5.158;2023-02-20T00:20:01;102414.44;;;6.85;100.00
65329;BME280;51941;52.210;5.158;2023-02-20T00:22:30;102409.00;;;6.86;100.00
65329;BME280;51941;52.210;5.158;2023-02-20T00:24:56;102398.97;;;6.90;100.00
65329;BME280;51941;52.210;5.158;2023-02-20T00:27:23;102396.00;;;6.85;100.00
65329;BME280;51941;52.210;5.158;2023-02-20T00:29:50;102401.44;;;6.91;100.00
65329;BME280;51941;52.210;5.158;2023-02-20T00:32:17;102395.97;;;6.93;100.00
65329;BME280;51941;52.210;5.158;2023-02-20T00:34:44;102399.78;;;6.90;100.00
65329;BME280;51941;52.210;5.158;2023-02-20T00:37:12;102387.94;;;6.86;100.00
65329;BME280;51941;52.210;5.158;2023-02-20T00:39:40;102385.31;;;6.86;100.00
65329;BME280;51941;52.210;5.158;2023-02-20T00:42:07;102370.38;;;6.79;99.85
65329;BME280;51941;52.210;5.158;2023-02-20T00:44:34;102387.28;;;6.84;100.00
65329;BME280;51941;52.210;5.158;2023-02-20T00:47:00;102384.03;;;6.82;100.00
65329;BME280;51941;52.210;5.158;2023-02-20T00:49:27;102379.56;;;6.83;99.91
65329;BME280;51941;52.210;5.158;2023-02-20T00:52:06;102371.03;;;6.81;99.84
65329;BME280;51941;52.210;5.158;2023-02-20T00:54:34;102369.88;;;6.75;99.87
65329;BME280;51941;52.210;5.158;2023-02-20T00:57:02;102373.34;;;6.68;99.82
65329;BME280;51941;52.210;5.158;2023-02-20T00:59:29;102374.00;;;6.62;100.00
65329;BME280;51941;52.210;5.158;2023-02-20T01:01:56;102366.44;;;6.59;100.00
65329;BME280;51941;52.210;5.158;2023-02-20T01:04:23;102349.84;;;6.50;100.00
65329;BME280;51941;52.210;5.158;2023-02-20T01:06:50;102341.31;;;6.56;100.00
65329;BME280;51941;52.210;5.158;2023-02-20T01:09:16;102312.88;;;6.51;100.00
65329;BME280;51941;52.210;5.158;2023-02-20T01:11:44;102308.59;;;6.50;100.00
65329;BME280;51941;52.210;5.158;2023-02-20T01:14:12;102300.38;;;6.45;100.00
65329;BME280;51941;52.210;5.158;2023-02-20T01:16:43;102293.66;;;6.43;100.00
65329;BME280;51941;52.210;5.158;2023-02-20T01:19:10;102287.91;;;6.31;100.00
65329;BME280;51941;52.210;5.158;2023-02-20T01:21:36;102296.28;;;6.35;100.00
65329;BME280;51941;52.210;5.158;2023-02-20T01:24:03;102292.53;;;6.29;100.00
65329;BME280;51941;52.210;5.158;2023-02-20T01:26:30;102297.63;;;6.23;100.00
65329;BME280;51941;52.210;5.158;2023-02-20T01:28:57;102314.22;;;6.23;100.00
65329;BME280;51941;52.210;5.158;2023-02-20T01:31:25;102304.03;;;6.20;100.00
65329;BME280;51941;52.210;5.158;2023-02-20T01:33:52;102300.41;;;6.13;100.00
65329;BME280;51941;52.210;5.158;2023-02-20T01:36:19;102309.63;;;6.17;100.00
65329;BME280;51941;52.210;5.158;2023-02-20T01:38:46;102300.09;;;6.16;100.00
65329;BME280;51941;52.210;5.158;2023-02-20T01:41:15;102309.94;;;6.14;100.00
65329;BME280;51941;52.210;5.158;2023-02-20T01:43:43;102309.13;;;6.13;100.00
65329;BME280;51941;52.210;5.158;2023-02-20T01:46:47;102292.38;;;6.14;100.00
65329;BME280;51941;52.210;5.158;2023-02-20T01:49:21;102278.91;;;6.09;100.00
65329;BME280;51941;52.210;5.158;2023-02-20T01:51:51;102306.84;;;6.10;100.00
65329;BME280;51941;52.210;5.158;2023-02-20T01:54:22;102303.22;;;6.11;100.00
65329;BME280;51941;52.210;5.158;2023-02-20T01:56:51;102291.38;;;6.15;100.00
65329;BME280;51941;52.210;5.158;2023-02-20T01:59:20;102294.50;;;6.19;100.00
65329;BME280;51941;52.210;5.158;2023-02-20T02:01:50;102290.53;;;6.23;100.00
65329;BME280;51941;52.210;5.158;2023-02-20T02:04:18;102280.22;;;6.30;100.00
65329;BME280;51941;52.210;5.158;2023-02-20T02:06:49;102286.75;;;6.42;100.00
65329;BME280;51941;52.210;5.158;2023-02-20T02:09:23;102286.25;;;6.46;100.00
65329;BME280;51941;52.210;5.158;2023-02-20T02:11:53;102276.69;;;6.53;100.00
65329;BME280;51941;52.210;5.158;2023-02-20T02:14:20;102282.25;;;6.59;100.00
65329;BME280;51941;52.210;5.158;2023-02-20T02:17:11;102282.41;;;6.65;100.00
65329;BME280;51941;52.210;5.158;2023-02-20T02:20:11;102280.59;;;6.74;100.00
65329;BME280;51941;52.210;5.158;2023-02-20T02:23:19;102274.97;;;6.77;100.00
65329;BME280;51941;52.210;5.158;2023-02-20T02:25:55;102266.69;;;6.88;100.00
65329;BME280;51941;52.210;5.158;2023-02-20T02:28:38;102256.16;;;6.88;100.00
65329;BME280;51941;52.210;5.158;2023-02-20T02:31:49;102260.53;;;7.04;100.00
65329;BME280;51941;52.210;5.158;2023-02-20T02:37:24;102254.72;;;7.16;100.00
65329;BME280;51941;52.210;5.158;2023-02-20T02:39:58;102246.66;;;7.18;100.00
65329;BME280;51941;52.210;5.158;2023-02-20T02:42:34;102242.00;;;7.20;100.00
65329;BME280;51941;52.210;5.158;2023-02-20T02:45:11;102245.94;;;7.24;100.00
65329;BME280;51941;52.210;5.158;2023-02-20T02:47:46;102241.13;;;7.27;100.00
65329;BME280;51941;52.210;5.158;2023-02-20T02:50:18;102177.88;;;6.90;100.00
65329;BME280;51941;52.210;5.158;2023-02-20T02:52:48;102243.75;;;7.36;100.00
65329;BME280;51941;52.210;5.158;2023-02-20T02:55:21;102238.47;;;7.36;100.00
65329;BME280;51941;52.210;5.158;2023-02-20T02:57:48;102238.78;;;7.41;100.00
65329;BME280;51941;52.210;5.158;2023-02-20T03:00:18;102238.13;;;7.39;100.00
65329;BME280;51941;52.210;5.158;2023-02-20T03:02:53;102229.41;;;7.38;100.00
65329;BME280;51941;52.210;5.158;2023-02-20T03:05:24;102235.63;;;7.45;100.00
65329;BME280;51941;52.210;5.158;2023-02-20T03:07:55;102219.63;;;7.47;100.00
65329;BME280;51941;52.210;5.158;2023-02-20T03:10:24;102233.06;;;7.60;100.00
65329;BME280;51941;52.210;5.158;2023-02-20T03:13:00;102226.97;;;7.59;100.00
65329;BME280;51941;52.210;5.158;2023-02-20T03:15:30;102225.91;;;7.68;100.00
65329;BME280;51941;52.210;5.158;2023-02-20T03:18:09;102217.69;;;7.63;100.00
65329;BME280;51941;52.210;5.158;2023-02-20T03:20:38;102221.91;;;7.73;100.00
65329;BME280;51941;52.210;5.158;2023-02-20T03:23:10;102223.38;;;7.75;100.00
65329;BME280;51941;52.210;5.158;2023-02-20T03:25:41;102224.03;;;7.77;100.00
65329;BME280;51941;52.210;5.158;2023-02-20T03:28:15;102221.00;;;7.80;100.00
65329;BME280;51941;52.210;5.158;2023-02-20T03:30:46;102216.00;;;7.71;100.00
65329;BME280;51941;52.210;5.158;2023-02-20T03:33:18;102223.72;;;7.72;100.00
65329;BME280;51941;52.210;5.158;2023-02-20T03:36:07;102214.81;;;7.73;100.00
65329;BME280;51941;52.210;5.158;2023-02-20T03:38:58;102208.66;;;7.81;100.00
65329;BME280;51941;52.210;5.158;2023-02-20T03:41:46;102208.84;;;7.79;100.00
65329;BME280;51941;52.210;5.158;2023-02-20T03:44:33;102193.81;;;7.80;100.00
65329;BME280;51941;52.210;5.158;2023-02-20T03:47:03;102193.94;;;7.86;100.00
65329;BME280;51941;52.210;5.158;2023-02-20T03:49:35;102201.88;;;7.86;100.00
65329;BME280;51941;52.210;5.158;2023-02-20T03:52:22;102199.50;;;7.91;100.00
65329;BME280;51941;52.210;5.158;2023-02-20T03:54:51;102188.84;;;7.85;100.00
65329;BME280;51941;52.210;5.158;2023-02-20T03:57:22;102189.69;;;7.85;100.00
65329;BME280;51941;52.210;5.158;2023-02-20T03:59:55;102189.13;;;7.90;100.00
65329;BME280;51941;52.210;5.158;2023-02-20T04:02:26;102141.28;;;7.63;100.00
65329;BME280;51941;52.210;5.158;2023-02-20T04:04:59;102180.50;;;7.96;100.00
65329;BME280;51941;52.210;5.158;2023-02-20T04:07:33;102184.16;;;7.95;100.00
65329;BME280;51941;52.210;5.158;2023-02-20T04:10:05;102176.31;;;8.01;100.00
65329;BME280;51941;52.210;5.158;2023-02-20T04:12:35;102174.50;;;8.02;100.00
65329;BME280;51941;52.210;5.158;2023-02-20T04:15:04;102180.78;;;8.01;100.00
65329;BME280;51941;52.210;5.158;2023-02-20T04:17:39;102178.41;;;8.06;100.00
65329;BME280;51941;52.210;5.158;2023-02-20T04:20:08;102173.78;;;8.08;100.00
65329;BME280;51941;52.210;5.158;2023-02-20T04:22:44;102142.97;;;7.94;100.00
65329;BME280;51941;52.210;5.158;2023-02-20T04:25:18;102173.25;;;8.13;100.00
65329;BME280;51941;52.210;5.158;2023-02-20T04:27:47;102181.59;;;8.16;100.00
65329;BME280;51941;52.210;5.158;2023-02-20T04:30:14;102179.44;;;8.20;100.00
65329;BME280;51941;52.210;5.158;2023-02-20T04:32:41;102187.16;;;8.21;100.00
65329;BME280;51941;52.210;5.158;2023-02-20T04:35:15;102183.72;;;8.21;100.00
65329;BME280;51941;52.210;5.158;2023-02-20T04:37:42;102184.53;;;8.21;100.00
65329;BME280;51941;52.210;5.158;2023-02-20T04:40:09;102170.13;;;8.24;100.00
65329;BME280;51941;52.210;5.158;2023-02-20T04:42:38;102169.34;;;8.23;100.00
65329;BME280;51941;52.210;5.158;2023-02-20T04:45:06;102183.97;;;8.26;100.00
65329;BME280;51941;52.210;5.158;2023-02-20T04:47:33;102184.03;;;8.32;100.00
65329;BME280;51941;52.210;5.158;2023-02-20T04:50:00;102184.34;;;8.37;100.00
65329;BME280;51941;52.210;5.158;2023-02-20T04:52:28;102178.59;;;8.34;100.00
65329;BME280;51941;52.210;5.158;2023-02-20T04:54:56;102182.53;;;8.38;100.00
65329;BME280;51941;52.210;5.158;2023-02-20T04:57:24;102174.78;;;8.36;100.00
65329;BME280;51941;52.210;5.158;2023-02-20T04:59:52;102176.25;;;8.39;100.00
65329;BME280;51941;52.210;5.158;2023-02-20T05:02:19;102174.69;;;8.44;100.00
65329;BME280;51941;52.210;5.158;2023-02-20T05:04:46;102152.59;;;8.31;100.00
65329;BME280;51941;52.210;5.158;2023-02-20T05:07:15;102165.13;;;8.43;100.00
65329;BME280;51941;52.210;5.158;2023-02-20T05:09:42;102177.97;;;8.47;100.00
65329;BME280;51941;52.210;5.158;2023-02-20T05:12:09;102178.50;;;8.42;100.00
65329;BME280;51941;52.210;5.158;2023-02-20T05:14:36;102179.53;;;8.41;100.00
65329;BME280;51941;52.210;5.158;2023-02-20T05:17:04;102174.25;;;8.41;100.00
65329;BME280;51941;52.210;5.158;2023-02-20T05:19:31;102179.22;;;8.51;100.00
65329;BME280;51941;52.210;5.158;2023-02-20T05:21:58;102186.13;;;8.52;100.00
65329;BME280;51941;52.210;5.158;2023-02-20T05:24:42;102169.31;;;8.38;100.00
65329;BME280;51941;52.210;5.158;2023-02-20T05:27:09;102191.16;;;8.47;100.00
65329;BME280;51941;52.210;5.158;2023-02-20T05:29:36;102197.25;;;8.47;100.00
65329;BME280;51941;52.210;5.158;2023-02-20T05:32:04;102204.59;;;8.52;100.00
65329;BME280;51941;52.210;5.158;2023-02-20T05:34:31;102202.97;;;8.51;100.00
65329;BME280;51941;52.210;5.158;2023-02-20T05:36:57;102192.72;;;8.41;100.00
65329;BME280;51941;52.210;5.158;2023-02-20T05:39:24;102195.78;;;8.44;100.00
65329;BME280;51941;52.210;5.158;2023-02-20T05:41:51;102188.78;;;8.37;100.00
65329;BME280;51941;52.210;5.158;2023-02-20T05:44:18;102182.06;;;8.49;100.00
65329;BME280;51941;52.210;5.158;2023-02-20T05:46:45;102174.84;;;8.43;100.00
65329;BME280;51941;52.210;5.158;2023-02-20T05:49:13;102178.88;;;8.39;100.00
65329;BME280;51941;52.210;5.158;2023-02-20T05:51:42;102181.66;;;8.52;100.00
65329;BME280;51941;52.210;5.158;2023-02-20T05:54:08;102168.22;;;8.47;100.00
65329;BME280;51941;52.210;5.158;2023-02-20T05:56:35;102175.41;;;8.53;100.00
65329;BME280;51941;52.210;5.158;2023-02-20T05:59:06;102178.03;;;8.53;100.00
65329;BME280;51941;52.210;5.158;2023-02-20T06:01:33;102171.88;;;8.46;100.00
65329;BME280;51941;52.210;5.158;2023-02-20T06:04:00;102175.16;;;8.48;100.00
65329;BME280;51941;52.210;5.158;2023-02-20T06:06:32;102168.41;;;8.46;100.00
65329;BME280;51941;52.210;5.158;2023-02-20T06:08:59;102175.22;;;8.55;100.00
65329;BME280;51941;52.210;5.158;2023-02-20T06:11:26;102173.03;;;8.58;100.00
65329;BME280;51941;52.210;5.158;2023-02-20T06:13:53;102173.75;;;8.52;100.00
65329;BME280;51941;52.210;5.158;2023-02-20T06:16:24;102179.09;;;8.59;100.00
65329;BME280;51941;52.210;5.158;2023-02-20T06:18:52;102174.84;;;8.58;100.00
65329;BME280;51941;52.210;5.158;2023-02-20T06:21:18;102175.41;;;8.53;100.00
65329;BME280;51941;52.210;5.158;2023-02-20T06:23:49;102165.75;;;8.46;100.00
65329;BME280;51941;52.210;5.158;2023-02-20T06:26:17;102161.47;;;8.44;100.00
65329;BME280;51941;52.210;5.158;2023-02-20T06:28:44;102177.78;;;8.48;100.00
65329;BME280;51941;52.210;5.158;2023-02-20T06:31:12;102164.47;;;8.41;100.00
65329;BME280;51941;52.210;5.158;2023-02-20T06:33:39;102176.41;;;8.52;100.00
65329;BME280;51941;52.210;5.158;2023-02-20T06:36:18;102133.22;;;8.24;100.00
65329;BME280;51941;52.210;5.158;2023-02-20T06:38:45;102182.97;;;8.56;100.00
65329;BME280;51941;52.210;5.158;2023-02-20T06:41:13;102177.28;;;8.59;100.00
65329;BME280;51941;52.210;5.158;2023-02-20T06:43:40;102174.56;;;8.53;100.00
65329;BME280;51941;52.210;5.158;2023-02-20T06:46:07;102176.03;;;8.55;100.00
65329;BME280;51941;52.210;5.158;2023-02-20T06:48:34;102180.25;;;8.50;100.00
65329;BME280;51941;52.210;5.158;2023-02-20T06:51:00;102177.41;;;8.51;100.00
65329;BME280;51941;52.210;5.158;2023-02-20T06:53:27;102178.50;;;8.57;100.00
65329;BME280;51941;52.210;5.158;2023-02-20T06:55:54;102178.50;;;8.57;100.00
65329;BME280;51941;52.210;5.158;2023-02-20T06:58:22;102185.66;;;8.63;100.00
65329;BME280;51941;52.210;5.158;2023-02-20T07:00:49;102182.78;;;8.58;100.00
65329;BME280;51941;52.210;5.158;2023-02-20T07:03:15;102179.94;;;8.59;100.00
65329;BME280;51941;52.210;5.158;2023-02-20T07:05:43;102183.66;;;8.65;100.00
65329;BME280;51941;52.210;5.158;2023-02-20T07:08:10;102178.31;;;8.58;100.00
65329;BME280;51941;52.210;5.158;2023-02-20T07:10:37;102172.13;;;8.51;100.00
65329;BME280;51941;52.210;5.158;2023-02-20T07:13:04;102178.09;;;8.60;100.00
65329;BME280;51941;52.210;5.158;2023-02-20T07:15:32;102186.03;;;8.60;100.00
65329;BME280;51941;52.210;5.158;2023-02-20T07:17:59;102160.84;;;8.42;100.00
65329;BME280;51941;52.210;5.158;2023-02-20T07:20:25;102179.84;;;8.53;100.00
65329;BME280;51941;52.210;5.158;2023-02-20T07:22:52;102193.03;;;8.53;100.00
65329;BME280;51941;52.210;5.158;2023-02-20T07:25:19;102150.31;;;8.28;100.00
65329;BME280;51941;52.210;5.158;2023-02-20T07:27:46;102196.88;;;8.50;100.00
65329;BME280;51941;52.210;5.158;2023-02-20T07:30:13;102195.41;;;8.62;100.00
65329;BME280;51941;52.210;5.158;2023-02-20T07:32:41;102193.66;;;8.69;100.00
65329;BME280;51941;52.210;5.158;2023-02-20T07:35:08;102192.84;;;8.69;100.00
65329;BME280;51941;52.210;5.158;2023-02-20T07:37:35;102194.47;;;8.70;100.00
65329;BME280;51941;52.210;5.158;2023-02-20T07:40:02;102188.88;;;8.58;100.00
65329;BME280;51941;52.210;5.158;2023-02-20T07:42:29;102195.88;;;8.66;100.00
65329;BME280;51941;52.210;5.158;2023-02-20T07:45:05;102187.56;;;8.69;100.00
65329;BME280;51941;52.210;5.158;2023-02-20T07:47:32;102194.19;;;8.79;100.00
65329;BME280;51941;52.210;5.158;2023-02-20T07:50:00;102187.16;;;8.87;100.00
65329;BME280;51941;52.210;5.158;2023-02-20T07:52:27;102187.97;;;8.87;100.00
65329;BME280;51941;52.210;5.158;2023-02-20T07:54:54;102180.34;;;8.92;100.00
65329;BME280;51941;52.210;5.158;2023-02-20T07:57:21;102194.97;;;8.95;100.00
65329;BME280;51941;52.210;5.158;2023-02-20T07:59:47;102189.69;;;8.95;100.00
65329;BME280;51941;52.210;5.158;2023-02-20T08:02:14;102184.41;;;8.95;100.00
65329;BME280;51941;52.210;5.158;2023-02-20T08:04:41;102159.34;;;8.69;100.00
65329;BME280;51941;52.210;5.158;2023-02-20T08:07:09;102186.16;;;8.88;100.00
65329;BME280;51941;52.210;5.158;2023-02-20T08:09:36;102177.50;;;8.94;100.00
65329;BME280;51941;52.210;5.158;2023-02-20T08:12:03;102177.22;;;8.89;100.00
65329;BME280;51941;52.210;5.158;2023-02-20T08:14:30;102169.59;;;8.94;100.00
65329;BME280;51941;52.210;5.158;2023-02-20T08:16:57;102189.13;;;8.99;100.00
65329;BME280;51941;52.210;5.158;2023-02-20T08:19:23;102191.31;;;8.96;100.00
65329;BME280;51941;52.210;5.158;2023-02-20T08:21:50;102159.94;;;8.86;100.00
65329;BME280;51941;52.210;5.158;2023-02-20T08:24:18;102189.56;;;9.03;100.00
65329;BME280;51941;52.210;5.158;2023-02-20T08:26:47;102182.28;;;9.05;100.00
65329;BME280;51941;52.210;5.158;2023-02-20T08:29:14;102186.19;;;9.09;100.00
65329;BME280;51941;52.210;5.158;2023-02-20T08:31:42;102177.81;;;9.20;100.00
65329;BME280;51941;52.210;5.158;2023-02-20T08:34:09;102173.97;;;9.23;100.00
65329;BME280;51941;52.210;5.158;2023-02-20T08:36:35;102169.94;;;9.27;100.00
65329;BME280;51941;52.210;5.158;2023-02-20T08:39:02;102177.03;;;9.26;100.00
65329;BME280;51941;52.210;5.158;2023-02-20T08:41:31;102175.88;;;9.14;100.00
65329;BME280;51941;52.210;5.158;2023-02-20T08:43:58;102183.28;;;9.18;100.00
65329;BME280;51941;52.210;5.158;2023-02-20T08:46:25;102173.97;;;9.23;100.00
65329;BME280;51941;52.210;5.158;2023-02-20T08:48:51;102172.78;;;9.25;100.00
65329;BME280;51941;52.210;5.158;2023-02-20T08:51:19;102178.41;;;9.22;100.00
65329;BME280;51941;52.210;5.158;2023-02-20T08:53:46;102165.66;;;9.26;100.00
65329;BME280;51941;52.210;5.158;2023-02-20T08:56:16;102174.78;;;9.23;100.00
65329;BME280;51941;52.210;5.158;2023-02-20T08:58:45;102161.44;;;9.31;100.00
65329;BME280;51941;52.210;5.158;2023-02-20T09:01:11;102160.75;;;9.23;100.00
65329;BME280;51941;52.210;5.158;2023-02-20T09:03:38;102159.44;;;9.33;100.00
65329;BME280;51941;52.210;5.158;2023-02-20T09:06:06;102165.16;;;9.37;100.00
65329;BME280;51941;52.210;5.158;2023-02-20T09:08:33;102171.00;;;9.32;99.85
65329;BME280;51941;52.210;5.158;2023-02-20T09:11:00;102169.22;;;9.39;99.78
65329;BME280;51941;52.210;5.158;2023-02-20T09:13:27;102148.94;;;9.18;99.77
65329;BME280;51941;52.210;5.158;2023-02-20T09:15:55;102170.63;;;9.35;99.74
65329;BME280;51941;52.210;5.158;2023-02-20T09:18:22;102152.50;;;9.32;99.63
65329;BME280;51941;52.210;5.158;2023-02-20T09:20:48;102168.50;;;9.45;99.46
65329;BME280;51941;52.210;5.158;2023-02-20T09:23:15;102135.28;;;9.36;99.14
65329;BME280;51941;52.210;5.158;2023-02-20T09:25:42;102166.91;;;9.51;99.03
65329;BME280;51941;52.210;5.158;2023-02-20T09:28:09;102169.59;;;9.57;98.92
65329;BME280;51941;52.210;5.158;2023-02-20T09:30:36;102145.22;;;9.34;98.39
65329;BME280;51941;52.210;5.158;2023-02-20T09:33:04;102170.41;;;9.58;98.58
65329;BME280;51941;52.210;5.158;2023-02-20T09:35:30;102168.25;;;9.68;98.31
65329;BME280;51941;52.210;5.158;2023-02-20T09:37:57;102159.69;;;9.66;98.08
65329;BME280;51941;52.210;5.158;2023-02-20T09:40:28;102161.59;;;9.72;98.19
65329;BME280;51941;52.210;5.158;2023-02-20T09:43:06;102165.16;;;9.65;97.86
65329;BME280;51941;52.210;5.158;2023-02-20T09:45:40;102160.31;;;9.68;97.85
65329;BME280;51941;52.210;5.158;2023-02-20T09:48:18;102160.00;;;9.78;97.43
65329;BME280;51941;52.210;5.158;2023-02-20T09:50:50;102154.25;;;9.74;97.12
65329;BME280;51941;52.210;5.158;2023-02-20T09:53:19;102160.81;;;9.78;96.81
65329;BME280;51941;52.210;5.158;2023-02-20T09:55:48;102163.25;;;9.80;96.80
65329;BME280;51941;52.210;5.158;2023-02-20T09:58:24;102168.56;;;9.80;96.78
65329;BME280;51941;52.210;5.158;2023-02-20T10:00:52;102118.53;;;9.57;96.56
65329;BME280;51941;52.210;5.158;2023-02-20T10:03:27;102176.97;;;9.90;96.54
65329;BME280;51941;52.210;5.158;2023-02-20T10:06:00;102168.81;;;9.91;96.19
65329;BME280;51941;52.210;5.158;2023-02-20T10:08:28;102169.59;;;9.85;96.38
65329;BME280;51941;52.210;5.158;2023-02-20T10:10:58;102170.19;;;9.81;96.28
65329;BME280;51941;52.210;5.158;2023-02-20T10:13:41;102134.25;;;9.65;96.30
65329;BME280;51941;52.210;5.158;2023-02-20T10:16:25;102162.59;;;9.71;96.71
65329;BME280;51941;52.210;5.158;2023-02-20T10:19:05;102160.84;;;9.85;96.68
65329;BME280;51941;52.210;5.158;2023-02-20T10:21:46;102129.88;;;9.79;96.52
65329;BME280;51941;52.210;5.158;2023-02-20T10:24:26;102115.41;;;9.75;96.32
65329;BME280;51941;52.210;5.158;2023-02-20T10:27:04;102157.19;;;9.86;95.74
65329;BME280;51941;52.210;5.158;2023-02-20T10:29:40;102170.63;;;9.91;95.79
65329;BME280;51941;52.210;5.158;2023-02-20T10:32:10;102162.81;;;10.04;95.75
65329;BME280;51941;52.210;5.158;2023-02-20T10:34:47;102128.03;;;10.07;95.59
65329;BME280;51941;52.210;5.158;2023-02-20T10:37:19;102138.84;;;10.12;95.62
65329;BME280;51941;52.210;5.158;2023-02-20T10:39:49;102128.19;;;9.99;94.98
65329;BME280;51941;52.210;5.158;2023-02-20T10:42:22;102139.84;;;10.11;94.67
65329;BME280;51941;52.210;5.158;2023-02-20T10:44:57;102132.91;;;10.10;94.62
65329;BME280;51941;52.210;5.158;2023-02-20T10:47:30;102140.38;;;10.00;94.79
65329;BME280;51941;52.210;5.158;2023-02-20T10:50:06;102163.09;;;10.16;94.96
65329;BME280;51941;52.210;5.158;2023-02-20T10:52:38;102175.06;;;10.12;94.57
65329;BME280;51941;52.210;5.158;2023-02-20T10:55:10;102163.09;;;10.16;94.59
65329;BME280;51941;52.210;5.158;2023-02-20T10:57:40;102151.56;;;9.96;94.43
65329;BME280;51941;52.210;5.158;2023-02-20T11:00:12;102160.72;;;10.00;94.79
65329;BME280;51941;52.210;5.158;2023-02-20T11:02:46;102158.75;;;10.08;94.97
65329;BME280;51941;52.210;5.158;2023-02-20T11:05:18;102154.50;;;10.07;94.78
65329;BME280;51941;52.210;5.158;2023-02-20T11:07:47;102133.00;;;9.89;94.56
65329;BME280;51941;52.210;5.158;2023-02-20T11:10:14;102144.84;;;10.00;94.87
65329;BME280;51941;52.210;5.158;2023-02-20T11:12:43;102162.13;;;9.96;94.82
65329;BME280;51941;52.210;5.158;2023-02-20T11:15:14;102172.72;;;9.96;94.99
65329;BME280;51941;52.210;5.158;2023-02-20T11:17:41;102173.56;;;10.03;94.95
65329;BME280;51941;52.210;5.158;2023-02-20T11:20:39;102171.19;;;10.08;94.29
65329;BME280;51941;52.210;5.158;2023-02-20T11:23:08;102143.34;;;10.18;94.17
65329;BME280;51941;52.210;5.158;2023-02-20T11:25:37;102106.34;;;10.25;94.12
65329;BME280;51941;52.210;5.158;2023-02-20T11:28:09;102122.03;;;10.33;93.78
65329;BME280;51941;52.210;5.158;2023-02-20T11:30:38;102143.16;;;10.20;93.23
65329;BME280;51941;52.210;5.158;2023-02-20T11:33:12;102157.88;;;10.01;93.41
65329;BME280;51941;52.210;5.158;2023-02-20T11:35:41;102141.41;;;9.99;94.09
65329;BME280;51941;52.210;5.158;2023-02-20T11:38:23;102138.66;;;9.79;94.44
65329;BME280;51941;52.210;5.158;2023-02-20T11:41:19;102149.63;;;9.83;95.27
65329;BME280;51941;52.210;5.158;2023-02-20T11:44:07;102141.38;;;9.65;95.81
65329;BME280;51941;52.210;5.158;2023-02-20T11:46:41;102144.41;;;9.62;96.64
65329;BME280;51941;52.210;5.158;2023-02-20T11:49:10;102150.25;;;9.85;95.78
65329;BME280;51941;52.210;5.158;2023-02-20T11:51:40;102172.25;;;9.85;95.67
65329;BME280;51941;52.210;5.158;2023-02-20T11:54:13;102159.88;;;9.92;95.56
65329;BME280;51941;52.210;5.158;2023-02-20T11:56:54;102163.81;;;10.03;94.97
65329;BME280;51941;52.210;5.158;2023-02-20T11:59:33;102159.88;;;9.92;95.07
65329;BME280;51941;52.210;5.158;2023-02-20T12:02:23;102163.34;;;9.93;95.13
65329;BME280;51941;52.210;5.158;2023-02-20T12:05:04;102164.13;;;9.87;94.94
65329;BME280;51941;52.210;5.158;2023-02-20T12:07:38;102152.78;;;10.00;95.41
65329;BME280;51941;52.210;5.158;2023-02-20T12:13:11;102135.56;;;9.76;95.79
65329;BME280;51941;52.210;5.158;2023-02-20T12:15:38;102139.06;;;9.83;96.38
65329;BME280;51941;52.210;5.158;2023-02-20T12:21:17;102128.75;;;9.94;95.67
65329;BME280;51941;52.210;5.158;2023-02-20T12:23:57;102126.56;;;9.98;95.65
65329;BME280;51941;52.210;5.158;2023-02-20T12:26:36;102129.50;;;10.16;95.13
65329;BME280;51941;52.210;5.158;2023-02-20T12:29:17;102116.31;;;10.23;94.79
65329;BME280;51941;52.210;5.158;2023-02-20T12:32:02;102123.06;;;10.32;94.10
65329;BME280;51941;52.210;5.158;2023-02-20T12:34:41;102136.13;;;10.40;94.00
65329;BME280;51941;52.210;5.158;2023-02-20T12:37:18;102145.34;;;10.51;93.35
65329;BME280;51941;52.210;5.158;2023-02-20T12:39:56;102129.81;;;10.41;92.92
65329;BME280;51941;52.210;5.158;2023-02-20T12:42:31;102112.94;;;10.55;93.05
65329;BME280;51941;52.210;5.158;2023-02-20T12:45:22;102125.63;;;10.66;92.63
65329;BME280;51941;52.210;5.158;2023-02-20T12:47:56;102122.50;;;10.43;92.39
65329;BME280;51941;52.210;5.158;2023-02-20T12:50:44;102112.13;;;10.55;92.48
65329;BME280;51941;52.210;5.158;2023-02-20T12:53:19;102099.91;;;10.54;92.35
65329;BME280;51941;52.210;5.158;2023-02-20T12:55:55;101973.53;;;10.02;92.29
65329;BME280;51941;52.210;5.158;2023-02-20T12:58:36;102084.47;;;10.70;92.03
65329;BME280;51941;52.210;5.158;2023-02-20T13:01:09;102089.44;;;10.93;91.65
65329;BME280;51941;52.210;5.158;2023-02-20T13:03:42;102090.06;;;10.95;91.41
65329;BME280;51941;52.210;5.158;2023-02-20T13:06:13;102102.50;;;10.95;90.97
65329;BME280;51941;52.210;5.158;2023-02-20T13:08:54;102108.19;;;10.98;90.76
65329;BME280;51941;52.210;5.158;2023-02-20T13:11:24;102106.94;;;10.88;90.59
65329;BME280;51941;52.210;5.158;2023-02-20T13:14:03;102112.03;;;10.89;90.62
65329;BME280;51941;52.210;5.158;2023-02-20T13:16:39;102103.91;;;10.91;90.67
65329;BME280;51941;52.210;5.158;2023-02-20T13:19:18;102106.75;;;10.89;90.82
65329;BME280;51941;52.210;5.158;2023-02-20T13:21:47;102109.19;;;10.84;90.99